createdAt,value
2018-12-21T00:00:17.853Z,6.81
2018-12-21T00:03:21.979Z,6.81
2018-12-21T00:06:25.620Z,6.80
2018-12-21T00:09:29.163Z,6.82
2018-12-21T00:12:32.737Z,6.79
2018-12-21T00:15:36.309Z,6.90
2018-12-21T00:18:39.942Z,6.86
2018-12-21T00:21:43.643Z,6.83
2018-12-21T00:24:47.169Z,6.85
2018-12-21T00:27:50.676Z,6.88
2018-12-21T00:30:59.849Z,6.91
2018-12-21T00:34:08.841Z,6.89
2018-12-21T00:37:17.704Z,6.89
2018-12-21T00:40:26.418Z,6.85
2018-12-21T00:43:35.156Z,6.86
2018-12-21T00:46:45.604Z,6.81
2018-12-21T00:49:49.118Z,6.76
2018-12-21T00:52:52.627Z,6.70
2018-12-21T00:55:56.176Z,6.60
2018-12-21T00:58:59.741Z,6.57
2018-12-21T01:02:03.427Z,6.57
2018-12-21T01:05:07.232Z,6.52
2018-12-21T01:08:11.084Z,6.45
2018-12-21T01:11:14.593Z,6.38
2018-12-21T01:14:18.072Z,6.35
2018-12-21T01:17:21.689Z,6.37
2018-12-21T01:20:25.601Z,6.36
2018-12-21T01:23:29.244Z,6.33
2018-12-21T01:26:32.977Z,6.33
2018-12-21T01:29:36.485Z,6.30
2018-12-21T01:32:40.026Z,6.31
2018-12-21T01:35:43.491Z,6.31
2018-12-21T01:38:47.057Z,6.26
2018-12-21T01:41:50.558Z,6.55
2018-12-21T01:44:54.477Z,6.45
2018-12-21T01:47:58.104Z,6.39
2018-12-21T01:51:02.066Z,6.42
2018-12-21T01:54:05.531Z,6.39
2018-12-21T01:57:09.142Z,6.52
2018-12-21T02:00:12.856Z,6.61
2018-12-21T02:03:16.318Z,6.68
2018-12-21T02:06:19.798Z,6.54
2018-12-21T02:09:23.358Z,6.44
2018-12-21T02:12:26.890Z,6.51
2018-12-21T02:15:30.408Z,6.41
2018-12-21T02:18:33.929Z,6.42
2018-12-21T02:21:37.564Z,6.53
2018-12-21T02:24:41.168Z,6.40
2018-12-21T02:27:44.613Z,6.33
2018-12-21T02:30:48.238Z,6.36
2018-12-21T02:33:51.843Z,6.36
2018-12-21T02:36:55.303Z,6.38
2018-12-21T02:39:58.821Z,6.38
2018-12-21T02:43:02.386Z,6.37
2018-12-21T02:46:05.919Z,6.49
2018-12-21T02:49:09.392Z,6.37
2018-12-21T02:52:12.975Z,6.34
2018-12-21T02:55:16.463Z,6.36
2018-12-21T02:58:19.951Z,6.36
2018-12-21T03:01:23.439Z,6.45
2018-12-21T03:04:26.928Z,6.46
2018-12-21T03:07:30.626Z,6.41
2018-12-21T03:10:34.228Z,6.46
2018-12-21T03:13:37.752Z,6.48
2018-12-21T03:16:41.248Z,6.53
2018-12-21T03:19:44.774Z,6.44
2018-12-21T03:22:48.228Z,6.49
2018-12-21T03:25:51.691Z,6.56
2018-12-21T03:28:55.291Z,6.49
2018-12-21T03:31:58.804Z,6.59
2018-12-21T03:35:02.440Z,6.54
2018-12-21T03:38:06.059Z,6.59
2018-12-21T03:41:09.678Z,6.58
2018-12-21T03:44:13.122Z,6.68
2018-12-21T03:47:16.614Z,6.84
2018-12-21T03:50:20.126Z,6.69
2018-12-21T03:53:23.719Z,6.59
2018-12-21T03:56:27.202Z,6.63
2018-12-21T03:59:30.784Z,6.60
2018-12-21T04:02:34.284Z,6.57
2018-12-21T04:05:37.978Z,6.57
2018-12-21T04:08:41.457Z,6.60
2018-12-21T04:11:44.993Z,6.81
2018-12-21T04:14:48.617Z,6.65
2018-12-21T04:17:52.315Z,6.64
2018-12-21T04:20:55.896Z,6.64
2018-12-21T04:23:59.362Z,6.67
2018-12-21T04:27:03.091Z,6.67
2018-12-21T04:30:07.563Z,6.61
2018-12-21T04:33:11.013Z,6.53
2018-12-21T04:36:14.588Z,6.65
2018-12-21T04:39:18.124Z,6.74
2018-12-21T04:42:21.742Z,6.65
2018-12-21T04:45:25.215Z,6.69
2018-12-21T04:48:28.708Z,6.66
2018-12-21T04:51:32.228Z,6.57
2018-12-21T04:54:35.922Z,6.68
2018-12-21T04:57:39.513Z,6.64
2018-12-21T05:00:43.074Z,6.60
2018-12-21T05:03:46.971Z,6.64
2018-12-21T05:06:50.628Z,6.63
2018-12-21T05:09:56.523Z,6.67
2018-12-21T05:13:00.993Z,6.75
2018-12-21T05:16:04.706Z,6.66
2018-12-21T05:19:08.369Z,6.66
2018-12-21T05:22:11.841Z,6.71
2018-12-21T05:25:15.607Z,6.93
2018-12-21T05:28:19.103Z,6.85
2018-12-21T05:31:28.223Z,6.76
2018-12-21T05:34:28.738Z,6.87
2018-12-21T05:37:32.598Z,6.96
2018-12-21T05:40:36.159Z,6.93
2018-12-21T05:43:39.662Z,6.90
2018-12-21T05:46:43.198Z,6.84
2018-12-21T05:49:46.728Z,6.88
2018-12-21T05:52:51.021Z,7.04
2018-12-21T05:55:55.196Z,7.13
2018-12-21T05:58:59.627Z,7.26
2018-12-21T06:02:05.315Z,7.04
2018-12-21T06:05:08.773Z,7.24
2018-12-21T06:08:19.239Z,7.09
2018-12-21T06:11:22.778Z,7.22
2018-12-21T06:14:26.303Z,7.23
2018-12-21T06:17:29.900Z,7.14
2018-12-21T06:20:33.561Z,7.18
2018-12-21T06:23:37.040Z,7.17
2018-12-21T06:26:40.802Z,7.23
2018-12-21T06:29:44.645Z,7.52
2018-12-21T06:32:48.139Z,7.58
2018-12-21T06:35:51.674Z,7.38
2018-12-21T06:38:55.266Z,7.38
2018-12-21T06:41:58.851Z,7.41
2018-12-21T06:45:02.661Z,7.27
2018-12-21T06:48:06.152Z,7.37
2018-12-21T06:51:09.728Z,7.58
2018-12-21T06:54:13.500Z,7.48
2018-12-21T06:57:16.982Z,7.32
2018-12-21T07:00:20.531Z,7.25
2018-12-21T07:03:24.062Z,6.95
2018-12-21T07:06:27.637Z,6.99
2018-12-21T07:09:31.173Z,6.91
2018-12-21T07:12:34.697Z,6.99
2018-12-21T07:15:38.253Z,6.94
2018-12-21T07:18:41.803Z,6.98
2018-12-21T07:21:45.362Z,6.90
2018-12-21T07:24:48.930Z,6.90
2018-12-21T07:27:52.407Z,6.83
2018-12-21T07:30:56.000Z,6.83
2018-12-21T07:33:59.498Z,6.89
2018-12-21T07:37:03.318Z,6.88
2018-12-21T07:40:08.077Z,6.89
2018-12-21T07:43:11.656Z,6.90
2018-12-21T07:46:15.218Z,6.91
2018-12-21T07:49:18.778Z,6.88
2018-12-21T07:52:22.288Z,7.02
2018-12-21T07:55:25.811Z,6.97
2018-12-21T07:58:29.309Z,7.13
2018-12-21T08:01:32.865Z,6.98
2018-12-21T08:04:36.425Z,6.99
2018-12-21T08:07:39.952Z,7.22
2018-12-21T08:10:43.531Z,7.19
2018-12-21T08:13:47.012Z,7.09
2018-12-21T08:16:50.518Z,7.12
2018-12-21T08:19:54.936Z,7.01
2018-12-21T08:22:58.507Z,7.08
2018-12-21T08:26:02.724Z,7.27
2018-12-21T08:29:06.275Z,7.14
2018-12-21T08:32:09.796Z,7.13
2018-12-21T08:35:13.319Z,7.10
2018-12-21T08:38:16.846Z,7.14
2018-12-21T08:41:20.430Z,7.14
2018-12-21T08:44:24.085Z,7.24
2018-12-21T08:47:27.611Z,7.29
2018-12-21T08:50:31.095Z,7.37
2018-12-21T08:53:34.640Z,7.32
2018-12-21T08:56:38.184Z,7.47
2018-12-21T08:59:42.192Z,7.30
2018-12-21T09:02:45.644Z,7.15
2018-12-21T09:05:49.415Z,7.12
2018-12-21T09:08:53.085Z,7.19
2018-12-21T09:11:56.586Z,7.26
2018-12-21T09:15:00.085Z,7.17
2018-12-21T09:18:03.949Z,7.08
2018-12-21T09:21:07.421Z,7.05
2018-12-21T09:24:10.984Z,7.03
2018-12-21T09:27:14.555Z,7.23
2018-12-21T09:30:18.090Z,7.02
2018-12-21T09:33:21.525Z,7.05
2018-12-21T09:36:25.079Z,7.07
2018-12-21T09:39:28.590Z,6.98
2018-12-21T09:42:33.080Z,6.94
2018-12-21T09:45:36.610Z,6.79
2018-12-21T09:48:40.114Z,6.86
2018-12-21T09:51:45.362Z,7.01
2018-12-21T09:54:49.060Z,7.18
2018-12-21T09:57:56.633Z,7.19
2018-12-21T10:01:00.098Z,7.25
2018-12-21T10:04:03.715Z,7.12
2018-12-21T10:07:07.223Z,7.27
2018-12-21T10:10:11.798Z,7.45
2018-12-21T10:13:15.361Z,7.56
2018-12-21T10:16:19.557Z,7.43
2018-12-21T10:19:23.079Z,7.39
2018-12-21T10:22:26.543Z,7.44
2018-12-21T10:25:30.092Z,7.43
2018-12-21T10:28:34.083Z,7.41
2018-12-21T10:31:37.553Z,7.67
2018-12-21T10:34:41.115Z,7.62
2018-12-21T10:37:44.613Z,7.68
2018-12-21T10:40:48.100Z,7.71
2018-12-21T10:43:51.618Z,7.63
2018-12-21T10:46:55.261Z,7.75
2018-12-21T10:49:58.769Z,7.64
2018-12-21T10:53:03.072Z,7.91
2018-12-21T10:56:06.615Z,7.97
2018-12-21T10:59:10.079Z,8.07
2018-12-21T11:02:13.633Z,8.22
2018-12-21T11:05:17.070Z,8.12
2018-12-21T11:08:20.640Z,7.99
2018-12-21T11:11:24.310Z,8.15
2018-12-21T11:14:27.778Z,8.15
2018-12-21T11:17:31.410Z,8.30
2018-12-21T11:20:35.693Z,8.04
2018-12-21T11:23:39.199Z,8.05
2018-12-21T11:26:42.830Z,8.03
2018-12-21T11:29:46.287Z,8.08
2018-12-21T11:32:49.891Z,7.97
2018-12-21T11:35:53.471Z,8.06
2018-12-21T11:38:56.983Z,8.08
2018-12-21T11:42:00.467Z,8.09
2018-12-21T11:45:04.334Z,8.07
2018-12-21T11:48:07.829Z,8.04
2018-12-21T11:51:11.624Z,8.16
2018-12-21T11:54:15.186Z,8.07
2018-12-21T11:57:18.745Z,8.20
2018-12-21T12:00:22.218Z,7.97
2018-12-21T12:03:25.716Z,8.02
2018-12-21T12:06:29.278Z,7.99
2018-12-21T12:09:33.228Z,8.00
2018-12-21T12:12:36.813Z,8.23
2018-12-21T12:15:40.499Z,8.20
2018-12-21T12:18:44.005Z,8.38
2018-12-21T12:21:47.534Z,8.41
2018-12-21T12:24:52.858Z,8.45
2018-12-21T12:27:56.650Z,8.41
2018-12-21T12:31:00.209Z,8.48
2018-12-21T12:34:03.911Z,8.49
2018-12-21T12:37:07.520Z,8.58
2018-12-21T12:40:10.968Z,8.51
2018-12-21T12:43:14.478Z,8.61
2018-12-21T12:46:18.009Z,8.78
2018-12-21T12:49:21.517Z,8.72
2018-12-21T12:52:25.055Z,8.78
2018-12-21T12:55:28.633Z,8.74
2018-12-21T12:58:32.170Z,8.78
2018-12-21T13:01:35.683Z,8.79
2018-12-21T13:04:39.208Z,8.86
2018-12-21T13:07:42.723Z,8.87
2018-12-21T13:10:46.214Z,8.95
2018-12-21T13:13:49.923Z,9.06
2018-12-21T13:16:53.373Z,9.19
2018-12-21T13:19:56.974Z,9.30
2018-12-21T13:23:00.576Z,9.29
2018-12-21T13:26:04.128Z,9.35
2018-12-21T13:29:07.712Z,9.61
2018-12-21T13:32:11.279Z,9.59
2018-12-21T13:35:14.858Z,9.60
2018-12-21T13:38:18.437Z,9.66
2018-12-21T13:41:22.003Z,9.76
2018-12-21T13:44:25.687Z,9.96
2018-12-21T13:47:29.253Z,10.18
2018-12-21T13:50:33.627Z,10.10
2018-12-21T13:53:37.317Z,10.15
2018-12-21T13:56:42.973Z,10.19
2018-12-21T13:59:46.353Z,10.26
2018-12-21T14:02:49.923Z,10.33
2018-12-21T14:05:53.429Z,10.43
2018-12-21T14:08:57.174Z,10.43
2018-12-21T14:12:00.713Z,10.41
2018-12-21T14:15:04.599Z,10.52
2018-12-21T14:18:08.159Z,10.63
2018-12-21T14:21:11.754Z,10.69
2018-12-21T14:24:15.385Z,10.73
2018-12-21T14:27:19.019Z,10.85
2018-12-21T14:30:22.582Z,10.90
2018-12-21T14:33:26.034Z,10.85
2018-12-21T14:36:29.588Z,10.85
2018-12-21T14:39:33.538Z,11.01
2018-12-21T14:42:37.143Z,11.04
2018-12-21T14:45:40.738Z,11.03
2018-12-21T14:48:44.229Z,11.10
2018-12-21T14:51:47.974Z,11.18
2018-12-21T14:54:51.473Z,11.18
2018-12-21T14:57:55.282Z,11.02
2018-12-21T15:00:58.854Z,10.92
2018-12-21T15:04:02.535Z,10.98
2018-12-21T15:07:06.073Z,10.97
2018-12-21T15:10:10.972Z,11.00
2018-12-21T15:13:14.482Z,11.02
2018-12-21T15:16:18.047Z,11.08
2018-12-21T15:19:21.654Z,11.10
2018-12-21T15:22:25.194Z,11.10
2018-12-21T15:25:28.670Z,11.18
2018-12-21T15:28:32.163Z,11.23
2018-12-21T15:31:35.678Z,11.27
2018-12-21T15:34:39.162Z,11.28
2018-12-21T15:37:43.819Z,11.28
2018-12-21T15:40:47.413Z,11.26
2018-12-21T15:43:50.948Z,11.36
2018-12-21T15:46:54.459Z,11.34
2018-12-21T15:49:58.043Z,11.34
2018-12-21T15:53:01.620Z,11.32
2018-12-21T15:56:05.167Z,11.41
2018-12-21T15:59:08.677Z,11.45
2018-12-21T16:02:13.984Z,11.49
2018-12-21T16:05:17.738Z,11.38
2018-12-21T16:08:21.400Z,11.29
2018-12-21T16:11:24.970Z,11.31
2018-12-21T16:14:34.256Z,11.30
2018-12-21T16:17:34.030Z,11.25
2018-12-21T16:20:37.654Z,11.27
2018-12-21T16:23:41.183Z,11.26
2018-12-21T16:26:44.829Z,11.28
2018-12-21T16:29:48.447Z,11.31
2018-12-21T16:32:52.133Z,11.23
2018-12-21T16:35:55.763Z,11.26
2018-12-21T16:38:59.359Z,11.19
2018-12-21T16:42:02.902Z,11.18
2018-12-21T16:45:08.910Z,11.25
2018-12-21T16:48:12.579Z,11.27
2018-12-21T16:51:16.104Z,11.14
2018-12-21T16:54:19.718Z,11.16
2018-12-21T16:57:23.223Z,11.14
2018-12-21T17:00:26.869Z,11.10
2018-12-21T17:03:30.428Z,11.15
2018-12-21T17:06:34.033Z,11.11
2018-12-21T17:09:37.599Z,11.11
2018-12-21T17:12:41.053Z,11.07
2018-12-21T17:15:44.849Z,11.04
2018-12-21T17:18:48.409Z,10.98
2018-12-21T17:21:53.217Z,10.94
2018-12-21T17:24:56.987Z,10.82
2018-12-21T17:28:00.608Z,10.87
2018-12-21T17:31:04.393Z,10.89
2018-12-21T17:34:07.943Z,10.74
2018-12-21T17:37:11.507Z,10.74
2018-12-21T17:40:15.050Z,10.66
2018-12-21T17:43:18.547Z,10.71
2018-12-21T17:46:22.107Z,10.75
2018-12-21T17:49:25.734Z,10.82
2018-12-21T17:52:29.423Z,10.69
2018-12-21T17:55:33.070Z,10.74
2018-12-21T17:58:36.562Z,10.65
2018-12-21T18:01:46.457Z,10.63
2018-12-21T18:04:49.938Z,10.67
2018-12-21T18:07:54.464Z,10.50
2018-12-21T18:10:57.930Z,10.48
2018-12-21T18:14:01.454Z,10.59
2018-12-21T18:17:05.804Z,10.48
2018-12-21T18:20:11.558Z,10.30
2018-12-21T18:23:15.732Z,10.24
2018-12-21T18:26:19.352Z,9.93
2018-12-21T18:29:23.268Z,9.82
2018-12-21T18:32:37.102Z,9.67
2018-12-21T18:35:40.714Z,9.55
2018-12-21T18:38:44.662Z,9.47
2018-12-21T18:41:49.554Z,9.36
2018-12-21T18:44:53.053Z,9.24
2018-12-21T18:47:57.544Z,9.20
2018-12-21T18:51:01.043Z,9.16
2018-12-21T18:54:04.711Z,9.11
2018-12-21T18:57:11.312Z,9.02
2018-12-21T19:00:16.502Z,8.98
2018-12-21T19:03:20.062Z,8.97
2018-12-21T19:06:23.545Z,8.98
2018-12-21T19:09:27.834Z,8.92
2018-12-21T19:12:31.400Z,8.96
2018-12-21T19:15:34.882Z,8.95
2018-12-21T19:18:38.342Z,8.91
2018-12-21T19:21:42.834Z,8.91
2018-12-21T19:24:46.477Z,8.96
2018-12-21T19:27:50.056Z,8.93
2018-12-21T19:30:53.498Z,8.93
2018-12-21T19:33:57.027Z,8.93
2018-12-21T19:37:00.657Z,9.01
2018-12-21T19:40:04.970Z,8.95
2018-12-21T19:43:08.490Z,8.96
2018-12-21T19:46:12.077Z,8.97
2018-12-21T19:49:15.636Z,8.97
2018-12-21T19:52:19.179Z,9.01
2018-12-21T19:56:02.709Z,8.98
2018-12-21T19:59:07.097Z,8.98
2018-12-21T20:02:10.783Z,8.98
2018-12-21T20:05:14.334Z,8.96
2018-12-21T20:08:18.021Z,8.92
2018-12-21T20:11:21.525Z,8.96
2018-12-21T20:14:25.069Z,9.05
2018-12-21T20:17:28.818Z,8.95
2018-12-21T20:20:32.652Z,9.03
2018-12-21T20:23:36.191Z,8.97
2018-12-21T20:26:41.657Z,8.95
2018-12-21T20:29:45.742Z,8.97
2018-12-21T20:32:49.794Z,8.95
2018-12-21T20:35:53.616Z,8.95
2018-12-21T20:38:57.267Z,8.90
2018-12-21T20:42:00.821Z,8.92
2018-12-21T20:45:05.240Z,8.85
2018-12-21T20:48:08.935Z,8.88
2018-12-21T20:51:13.001Z,8.96
2018-12-21T20:54:17.133Z,8.91
2018-12-21T20:57:22.232Z,9.00
2018-12-21T21:00:25.992Z,8.94
2018-12-21T21:03:29.576Z,9.02
2018-12-21T21:06:33.220Z,9.01
2018-12-21T21:09:37.010Z,9.05
2018-12-21T21:12:41.139Z,9.01
2018-12-21T21:15:44.728Z,9.06
2018-12-21T21:18:48.366Z,9.02
2018-12-21T21:21:51.982Z,9.10
2018-12-21T21:24:55.720Z,9.11
2018-12-21T21:28:01.450Z,9.15
2018-12-21T21:31:05.350Z,9.09
2018-12-21T21:34:08.925Z,9.20
2018-12-21T21:37:12.445Z,9.12
2018-12-21T21:40:18.230Z,9.09
2018-12-21T21:43:21.767Z,9.18
2018-12-21T21:46:27.416Z,9.21
2018-12-21T21:49:31.025Z,9.19
2018-12-21T21:52:34.821Z,9.12
2018-12-21T21:55:38.411Z,9.18
2018-12-21T21:58:41.945Z,9.17
2018-12-21T22:01:47.042Z,9.16
2018-12-21T22:04:50.727Z,9.24
2018-12-21T22:07:54.278Z,9.18
2018-12-21T22:11:01.754Z,9.06
2018-12-21T22:14:03.496Z,9.02
2018-12-21T22:17:07.026Z,9.02
2018-12-21T22:20:12.079Z,8.95
2018-12-21T22:23:15.798Z,8.93
2018-12-21T22:26:19.463Z,8.88
2018-12-21T22:29:23.103Z,8.91
2018-12-21T22:32:26.614Z,8.86
2018-12-21T22:35:30.269Z,8.70
2018-12-21T22:38:34.654Z,8.56
2018-12-21T22:41:38.258Z,8.33
2018-12-21T22:44:41.820Z,8.28
2018-12-21T22:47:45.303Z,8.27
2018-12-21T22:50:48.923Z,8.28
2018-12-21T22:53:52.443Z,8.28
2018-12-21T22:56:56.002Z,8.15
2018-12-21T22:59:59.498Z,8.09
2018-12-21T23:03:03.020Z,8.06
2018-12-21T23:06:06.641Z,8.03
2018-12-21T23:09:10.188Z,7.94
2018-12-21T23:12:13.873Z,7.91
2018-12-21T23:15:17.411Z,7.91
2018-12-21T23:18:20.898Z,7.89
2018-12-21T23:21:24.441Z,7.84
2018-12-21T23:24:28.048Z,7.82
2018-12-21T23:27:31.576Z,7.88
2018-12-21T23:30:35.243Z,7.83
2018-12-21T23:33:38.789Z,7.79
2018-12-21T23:36:42.308Z,7.77
2018-12-21T23:39:45.845Z,7.78
2018-12-21T23:42:49.317Z,7.77
2018-12-21T23:45:52.947Z,7.77
2018-12-21T23:48:56.424Z,7.76
2018-12-21T23:52:00.018Z,7.74
2018-12-21T23:55:03.575Z,7.74
2018-12-21T23:58:13.645Z,7.79
